createdAt,value
2022-10-05T00:01:40.491Z,13.91
2022-10-05T00:04:13.527Z,13.97
2022-10-05T00:06:40.123Z,14.32
2022-10-05T00:09:12.939Z,14.20
2022-10-05T00:11:41.038Z,14.13
2022-10-05T00:14:17.049Z,14.53
2022-10-05T00:16:44.141Z,14.35
2022-10-05T00:19:19.236Z,14.03
2022-10-05T00:21:45.668Z,14.17
2022-10-05T00:24:15.306Z,14.34
2022-10-05T00:26:43.210Z,14.04
2022-10-05T00:29:19.272Z,14.36
2022-10-05T00:31:45.810Z,14.22
2022-10-05T00:34:12.282Z,14.30
2022-10-05T00:36:39.788Z,14.30
2022-10-05T00:39:06.316Z,14.16
2022-10-05T00:41:44.977Z,14.49
2022-10-05T00:44:43.133Z,13.91
2022-10-05T00:47:33.133Z,13.78
2022-10-05T00:50:37.458Z,14.18
2022-10-05T00:53:12.144Z,14.26
2022-10-05T00:55:51.444Z,14.65
2022-10-05T00:58:32.511Z,14.66
2022-10-05T01:01:05.966Z,14.18
2022-10-05T01:03:47.561Z,14.62
2022-10-05T01:06:21.826Z,14.81
2022-10-05T01:08:54.989Z,14.55
2022-10-05T01:11:29.925Z,14.14
2022-10-05T01:14:05.234Z,14.65
2022-10-05T01:16:39.257Z,14.49
2022-10-05T01:19:20.041Z,14.13
2022-10-05T01:21:56.976Z,14.35
2022-10-05T01:24:41.772Z,14.73
2022-10-05T01:27:18.086Z,14.42
2022-10-05T01:29:52.273Z,14.27
2022-10-05T01:32:25.008Z,14.70
2022-10-05T01:35:00.998Z,14.70
2022-10-05T01:37:34.568Z,14.35
2022-10-05T01:40:07.246Z,14.57
2022-10-05T01:42:46.137Z,14.63
2022-10-05T01:45:23.229Z,14.10
2022-10-05T01:47:54.679Z,14.66
2022-10-05T01:50:32.252Z,14.38
2022-10-05T01:53:06.258Z,14.75
2022-10-05T01:55:40.090Z,14.10
2022-10-05T01:58:14.909Z,14.36
2022-10-05T02:00:51.698Z,14.32
2022-10-05T02:03:23.539Z,13.98
2022-10-05T02:05:52.994Z,13.97
2022-10-05T02:08:26.831Z,13.90
2022-10-05T02:10:59.477Z,13.99
2022-10-05T02:13:30.652Z,14.02
2022-10-05T02:16:03.213Z,14.39
2022-10-05T02:18:33.893Z,14.10
2022-10-05T02:21:02.242Z,14.14
2022-10-05T02:23:33.184Z,13.99
2022-10-05T02:26:01.029Z,14.13
2022-10-05T02:28:33.330Z,13.90
2022-10-05T02:31:07.629Z,14.16
2022-10-05T02:33:35.069Z,14.43
2022-10-05T02:36:05.245Z,14.62
2022-10-05T02:38:39.880Z,14.15
2022-10-05T02:41:18.462Z,14.14
2022-10-05T02:43:51.144Z,14.15
2022-10-05T02:46:29.091Z,14.35
2022-10-05T02:49:09.992Z,14.36
2022-10-05T02:51:46.723Z,13.66
2022-10-05T02:54:27.954Z,13.71
2022-10-05T02:56:59.969Z,13.97
2022-10-05T02:59:33.471Z,14.10
2022-10-05T03:02:09.875Z,14.15
2022-10-05T03:04:42.552Z,14.60
2022-10-05T03:07:15.907Z,14.56
2022-10-05T03:09:47.836Z,14.70
2022-10-05T03:12:31.248Z,14.29
2022-10-05T03:15:09.264Z,14.62
2022-10-05T03:17:48.966Z,14.47
2022-10-05T03:20:29.532Z,14.48
2022-10-05T03:23:00.496Z,14.06
2022-10-05T03:25:50.657Z,14.16
2022-10-05T03:28:23.480Z,14.69
2022-10-05T03:30:58.602Z,14.54
2022-10-05T03:33:32.910Z,13.72
2022-10-05T03:36:06.121Z,14.16
2022-10-05T03:38:41.416Z,14.48
2022-10-05T03:41:15.065Z,14.22
2022-10-05T03:43:59.428Z,14.30
2022-10-05T03:46:44.804Z,13.99
2022-10-05T03:49:21.815Z,14.50
2022-10-05T03:51:51.677Z,14.45
2022-10-05T03:54:22.934Z,14.43
2022-10-05T03:56:54.698Z,14.66
2022-10-05T03:59:30.152Z,14.62
2022-10-05T04:02:02.209Z,14.51
2022-10-05T04:04:34.693Z,14.91
2022-10-05T04:07:02.117Z,14.33
2022-10-05T04:09:35.155Z,14.41
2022-10-05T04:12:10.991Z,13.97
2022-10-05T04:14:41.490Z,14.20
2022-10-05T04:17:12.556Z,13.94
2022-10-05T04:19:45.137Z,14.33
2022-10-05T04:22:17.335Z,14.41
2022-10-05T04:24:49.267Z,13.93
2022-10-05T04:27:19.330Z,14.64
2022-10-05T04:29:53.259Z,13.70
2022-10-05T04:32:29.259Z,14.32
2022-10-05T04:35:12.370Z,13.95
2022-10-05T04:37:49.767Z,13.93
2022-10-05T04:40:33.651Z,13.95
2022-10-05T04:43:08.262Z,13.89
2022-10-05T04:45:49.093Z,13.75
2022-10-05T04:48:38.723Z,13.40
2022-10-05T04:51:20.550Z,13.60
2022-10-05T04:53:53.942Z,13.74
2022-10-05T04:56:28.885Z,14.04
2022-10-05T04:59:10.189Z,13.64
2022-10-05T05:01:49.793Z,13.64
2022-10-05T05:04:35.622Z,13.58
2022-10-05T05:07:17.867Z,13.77
2022-10-05T05:10:13.549Z,13.65
2022-10-05T05:12:50.812Z,13.93
2022-10-05T05:15:28.237Z,14.09
2022-10-05T05:18:12.684Z,14.14
2022-10-05T05:20:54.198Z,14.27
2022-10-05T05:23:29.151Z,14.36
2022-10-05T05:26:05.788Z,14.09
2022-10-05T05:28:39.464Z,13.99
2022-10-05T05:31:14.703Z,14.01
2022-10-05T05:33:49.892Z,14.37
2022-10-05T05:36:30.019Z,14.05
2022-10-05T05:39:15.920Z,14.13
2022-10-05T05:41:54.221Z,13.89
2022-10-05T05:44:24.865Z,14.10
2022-10-05T05:47:03.959Z,14.50
2022-10-05T05:49:42.261Z,14.00
2022-10-05T05:52:15.973Z,13.54
2022-10-05T05:54:46.550Z,13.81
2022-10-05T05:57:17.398Z,13.46
2022-10-05T05:59:53.466Z,13.94
2022-10-05T06:02:24.359Z,13.73
2022-10-05T06:04:55.644Z,13.30
2022-10-05T06:07:30.532Z,13.56
2022-10-05T06:10:06.139Z,13.21
2022-10-05T06:12:36.857Z,13.46
2022-10-05T06:15:13.464Z,13.39
2022-10-05T06:17:45.146Z,13.52
2022-10-05T06:20:20.477Z,13.67
2022-10-05T06:22:48.809Z,13.37
2022-10-05T06:25:25.661Z,13.61
2022-10-05T06:28:02.928Z,13.71
2022-10-05T06:30:43.148Z,13.48
2022-10-05T06:33:22.701Z,13.59
2022-10-05T06:36:03.790Z,13.67
2022-10-05T06:38:48.144Z,13.78
2022-10-05T06:41:21.940Z,14.01
2022-10-05T06:43:57.058Z,14.10
2022-10-05T06:46:28.054Z,14.18
2022-10-05T06:49:16.480Z,14.24
2022-10-05T06:51:51.456Z,14.12
2022-10-05T06:54:36.965Z,14.46
2022-10-05T06:57:10.331Z,14.42
2022-10-05T06:59:46.385Z,14.45
2022-10-05T07:02:21.193Z,15.17
2022-10-05T07:04:59.173Z,14.47
2022-10-05T07:07:37.400Z,15.11
2022-10-05T07:10:17.138Z,14.95
2022-10-05T07:12:58.253Z,15.20
2022-10-05T07:15:44.720Z,14.82
2022-10-05T07:18:28.795Z,15.76
2022-10-05T07:21:03.902Z,15.41
2022-10-05T07:23:45.982Z,15.90
2022-10-05T07:26:21.903Z,15.76
2022-10-05T07:28:57.837Z,16.05
2022-10-05T07:31:32.943Z,15.90
2022-10-05T07:34:06.528Z,15.53
2022-10-05T07:36:36.851Z,15.53
2022-10-05T07:39:10.613Z,14.96
2022-10-05T07:41:42.300Z,15.34
2022-10-05T07:44:15.876Z,15.42
2022-10-05T07:46:47.566Z,15.46
2022-10-05T07:49:22.604Z,15.24
2022-10-05T07:51:52.907Z,15.56
2022-10-05T07:54:25.039Z,15.76
2022-10-05T07:56:59.843Z,15.54
2022-10-05T07:59:34.540Z,15.77
2022-10-05T08:02:11.594Z,15.37
2022-10-05T08:04:45.784Z,15.49
2022-10-05T08:07:15.612Z,15.08
2022-10-05T08:09:46.260Z,15.66
2022-10-05T08:12:25.253Z,15.72
2022-10-05T08:14:57.049Z,15.78
2022-10-05T08:17:35.481Z,15.94
2022-10-05T08:20:15.998Z,16.43
2022-10-05T08:22:49.235Z,16.27
2022-10-05T08:25:22.000Z,16.20
2022-10-05T08:27:55.915Z,16.27
2022-10-05T08:30:23.745Z,16.73
2022-10-05T08:32:54.893Z,17.12
2022-10-05T08:35:28.475Z,16.74
2022-10-05T08:37:54.756Z,17.07
2022-10-05T08:41:03.621Z,16.78
2022-10-05T08:44:29.072Z,17.31
2022-10-05T08:47:14.990Z,16.53
2022-10-05T08:50:12.831Z,17.11
2022-10-05T08:53:01.142Z,16.99
2022-10-05T08:55:46.900Z,17.79
2022-10-05T08:58:52.244Z,17.33
2022-10-05T09:01:25.860Z,17.27
2022-10-05T09:04:03.549Z,17.46
2022-10-05T09:06:54.437Z,17.56
2022-10-05T09:09:47.458Z,17.66
2022-10-05T09:12:39.805Z,17.57
2022-10-05T09:15:31.601Z,17.55
2022-10-05T09:18:36.227Z,17.71
2022-10-05T09:21:12.773Z,17.65
2022-10-05T09:23:40.890Z,17.12
2022-10-05T09:26:28.455Z,17.23
2022-10-05T09:29:14.205Z,17.61
2022-10-05T09:31:55.717Z,17.92
2022-10-05T09:34:54.688Z,17.79
2022-10-05T09:37:38.775Z,17.68
2022-10-05T09:40:40.498Z,17.29
2022-10-05T09:43:47.881Z,17.57
2022-10-05T09:46:44.068Z,17.46
2022-10-05T09:49:33.724Z,17.93
2022-10-05T09:52:18.989Z,18.29
2022-10-05T09:55:19.465Z,17.95
2022-10-05T09:58:08.400Z,17.23
2022-10-05T10:00:58.817Z,17.73
2022-10-05T10:04:03.257Z,17.60
2022-10-05T10:07:24.496Z,17.70
2022-10-05T10:10:33.046Z,17.17
2022-10-05T10:13:22.178Z,17.45
2022-10-05T10:16:13.147Z,17.54
2022-10-05T10:19:05.666Z,16.49
2022-10-05T10:22:09.476Z,17.26
2022-10-05T10:24:58.896Z,17.80
2022-10-05T10:27:38.478Z,17.25
2022-10-05T10:30:36.534Z,17.54
2022-10-05T10:33:30.604Z,17.13
2022-10-05T10:36:06.076Z,17.39
2022-10-05T10:38:39.974Z,17.90
2022-10-05T10:41:26.947Z,17.58
2022-10-05T10:44:34.567Z,17.14
2022-10-05T10:47:27.257Z,17.56
2022-10-05T10:50:25.227Z,17.17
2022-10-05T10:53:04.590Z,17.91
2022-10-05T10:55:41.926Z,18.11
2022-10-05T10:58:59.859Z,17.60
2022-10-05T11:01:32.673Z,18.13
2022-10-05T11:04:31.025Z,17.95
2022-10-05T11:07:31.809Z,18.04
2022-10-05T11:10:29.498Z,17.97
2022-10-05T11:13:16.779Z,18.07
2022-10-05T11:16:14.594Z,17.89
2022-10-05T11:19:03.698Z,17.83
2022-10-05T11:21:38.421Z,18.01
2022-10-05T11:24:41.797Z,18.29
2022-10-05T11:27:33.570Z,18.32
2022-10-05T11:30:22.465Z,18.32
2022-10-05T11:33:10.345Z,18.70
2022-10-05T11:35:59.229Z,17.87
2022-10-05T11:38:47.058Z,18.20
2022-10-05T11:41:50.637Z,18.53
2022-10-05T11:44:59.763Z,18.16
2022-10-05T11:47:28.871Z,18.20
2022-10-05T11:50:04.247Z,17.92
2022-10-05T11:52:38.428Z,18.50
2022-10-05T11:55:24.197Z,18.80
2022-10-05T11:57:55.797Z,19.27
2022-10-05T12:00:23.603Z,18.79
2022-10-05T12:03:20.850Z,18.49
2022-10-05T12:06:00.011Z,18.98
2022-10-05T12:08:39.983Z,18.81
2022-10-05T12:11:25.538Z,18.61
2022-10-05T12:13:59.534Z,19.13
2022-10-05T12:16:31.581Z,18.34
2022-10-05T12:19:04.442Z,18.47
2022-10-05T12:21:40.442Z,19.69
2022-10-05T12:24:16.008Z,18.82
2022-10-05T12:26:50.356Z,19.52
2022-10-05T12:29:23.711Z,19.10
2022-10-05T12:31:58.542Z,19.00
2022-10-05T12:34:36.761Z,19.10
2022-10-05T12:37:12.950Z,18.96
2022-10-05T12:39:45.465Z,19.47
2022-10-05T12:42:25.859Z,19.13
2022-10-05T12:45:12.492Z,18.79
2022-10-05T12:47:54.015Z,19.11
2022-10-05T12:50:27.431Z,18.26
2022-10-05T12:53:13.668Z,19.03
2022-10-05T12:55:47.849Z,19.20
2022-10-05T12:58:28.534Z,18.55
2022-10-05T13:00:59.434Z,19.47
2022-10-05T13:03:34.136Z,19.23
2022-10-05T13:06:13.352Z,19.59
2022-10-05T13:08:49.439Z,18.51
2022-10-05T13:11:23.715Z,19.15
2022-10-05T13:14:02.271Z,18.90
2022-10-05T13:16:38.300Z,19.25
2022-10-05T13:19:19.548Z,19.44
2022-10-05T13:22:13.210Z,18.68
2022-10-05T13:24:52.205Z,18.78
2022-10-05T13:27:21.818Z,18.98
2022-10-05T13:29:54.700Z,18.81
2022-10-05T13:32:23.927Z,18.86
2022-10-05T13:34:57.354Z,18.80
2022-10-05T13:37:31.184Z,18.55
2022-10-05T13:40:10.987Z,18.60
2022-10-05T13:42:43.264Z,18.46
2022-10-05T13:45:17.527Z,18.71
2022-10-05T13:47:55.264Z,18.74
2022-10-05T13:50:28.443Z,19.19
2022-10-05T13:53:07.459Z,19.05
2022-10-05T13:55:42.990Z,19.05
2022-10-05T13:58:19.055Z,19.23
2022-10-05T14:00:53.405Z,18.94
2022-10-05T14:03:29.873Z,18.53
2022-10-05T14:05:58.208Z,18.86
2022-10-05T14:08:31.906Z,18.82
2022-10-05T14:10:58.378Z,18.17
2022-10-05T14:13:29.038Z,18.03
2022-10-05T14:15:59.740Z,19.07
2022-10-05T14:18:28.851Z,18.79
2022-10-05T14:21:14.244Z,18.57
2022-10-05T14:23:40.990Z,18.72
2022-10-05T14:26:17.969Z,18.20
2022-10-05T14:28:57.127Z,18.58
2022-10-05T14:31:31.558Z,18.09
2022-10-05T14:34:26.878Z,18.11
2022-10-05T14:36:58.013Z,17.91
2022-10-05T14:39:26.139Z,18.02
2022-10-05T14:41:52.794Z,18.10
2022-10-05T14:44:28.778Z,18.49
2022-10-05T14:46:58.322Z,18.81
2022-10-05T14:49:27.285Z,18.17
2022-10-05T14:51:55.301Z,18.06
2022-10-05T14:54:26.808Z,18.95
2022-10-05T14:57:05.132Z,18.51
2022-10-05T14:59:48.234Z,18.39
2022-10-05T15:02:45.407Z,18.43
2022-10-05T15:05:16.987Z,18.18
2022-10-05T15:07:45.851Z,18.25
2022-10-05T15:10:31.958Z,18.30
2022-10-05T15:13:11.335Z,18.73
2022-10-05T15:15:44.803Z,18.91
2022-10-05T15:18:27.161Z,18.32
2022-10-05T15:21:02.911Z,18.02
2022-10-05T15:23:37.798Z,18.90
2022-10-05T15:26:19.811Z,18.37
2022-10-05T15:28:53.676Z,18.90
2022-10-05T15:31:29.264Z,18.90
2022-10-05T15:34:02.911Z,19.06
2022-10-05T15:36:37.233Z,18.23
2022-10-05T15:39:11.690Z,18.10
2022-10-05T15:41:55.817Z,18.16
2022-10-05T15:44:31.572Z,18.93
2022-10-05T15:47:05.778Z,18.72
2022-10-05T15:49:41.428Z,18.68
2022-10-05T15:52:18.472Z,18.80
2022-10-05T15:55:20.260Z,18.50
2022-10-05T15:57:55.978Z,18.63
2022-10-05T16:00:24.755Z,18.67
2022-10-05T16:02:57.305Z,18.29
2022-10-05T16:05:34.391Z,18.30
2022-10-05T16:08:01.058Z,18.00
2022-10-05T16:10:32.993Z,18.44
2022-10-05T16:13:15.021Z,18.51
2022-10-05T16:15:45.975Z,18.43
2022-10-05T16:18:39.586Z,18.24
2022-10-05T16:21:21.971Z,18.17
2022-10-05T16:24:12.635Z,18.41
2022-10-05T16:26:52.619Z,18.29
2022-10-05T16:29:28.450Z,18.28
2022-10-05T16:32:00.129Z,18.21
2022-10-05T16:34:38.453Z,18.16
2022-10-05T16:37:18.552Z,18.06
2022-10-05T16:39:54.087Z,18.20
2022-10-05T16:42:35.028Z,17.98
2022-10-05T16:45:14.932Z,17.96
2022-10-05T16:47:49.246Z,17.77
2022-10-05T16:50:23.224Z,18.10
2022-10-05T16:52:55.984Z,17.41
2022-10-05T16:55:30.329Z,17.57
2022-10-05T16:57:59.373Z,17.39
2022-10-05T17:00:34.665Z,17.77
2022-10-05T17:03:12.568Z,17.55
2022-10-05T17:06:11.408Z,17.47
2022-10-05T17:08:55.922Z,17.08
2022-10-05T17:11:34.657Z,17.15
2022-10-05T17:14:20.414Z,17.19
2022-10-05T17:16:59.918Z,16.94
2022-10-05T17:19:47.292Z,17.77
2022-10-05T17:22:28.660Z,17.54
2022-10-05T17:25:06.819Z,17.00
2022-10-05T17:27:50.869Z,17.45
2022-10-05T17:30:47.158Z,17.33
2022-10-05T17:33:20.395Z,17.46
2022-10-05T17:35:53.442Z,17.31
2022-10-05T17:38:22.432Z,17.56
2022-10-05T17:41:24.300Z,17.61
2022-10-05T17:44:17.033Z,17.69
2022-10-05T17:46:45.004Z,17.29
2022-10-05T17:49:49.893Z,16.96
2022-10-05T17:52:25.281Z,17.44
2022-10-05T17:55:00.469Z,17.75
2022-10-05T17:57:28.471Z,17.69
2022-10-05T18:00:00.612Z,17.93
2022-10-05T18:02:42.285Z,17.90
2022-10-05T18:05:25.098Z,18.20
2022-10-05T18:08:28.907Z,17.50
2022-10-05T18:11:11.896Z,17.64
2022-10-05T18:13:42.802Z,17.57
2022-10-05T18:16:10.270Z,17.37
2022-10-05T18:18:55.748Z,17.56
2022-10-05T18:21:31.476Z,17.69
2022-10-05T18:24:07.500Z,17.93
2022-10-05T18:26:41.645Z,17.91
2022-10-05T18:29:23.183Z,18.06
2022-10-05T18:31:57.573Z,17.41
2022-10-05T18:34:29.991Z,17.97
2022-10-05T18:37:18.062Z,17.76
2022-10-05T18:40:00.092Z,17.89
2022-10-05T18:42:36.496Z,17.93
2022-10-05T18:45:21.725Z,17.60
2022-10-05T18:48:02.107Z,17.93
2022-10-05T18:50:36.867Z,17.34
2022-10-05T18:53:17.949Z,17.48
2022-10-05T18:55:47.619Z,17.58
2022-10-05T18:58:20.108Z,18.03
2022-10-05T19:01:28.611Z,17.79
2022-10-05T19:04:08.792Z,17.67
2022-10-05T19:06:43.679Z,18.06
2022-10-05T19:09:23.455Z,18.16
2022-10-05T19:11:57.359Z,17.88
2022-10-05T19:14:33.930Z,17.93
2022-10-05T19:17:18.105Z,17.48
2022-10-05T19:20:05.142Z,17.84
2022-10-05T19:22:46.244Z,18.06
2022-10-05T19:25:24.326Z,18.13
2022-10-05T19:28:02.245Z,17.91
2022-10-05T19:30:43.268Z,17.94
2022-10-05T19:33:25.556Z,18.38
2022-10-05T19:36:04.465Z,17.85
2022-10-05T19:38:40.992Z,18.06
2022-10-05T19:41:14.248Z,18.52
2022-10-05T19:44:04.631Z,18.25
2022-10-05T19:46:53.629Z,17.95
2022-10-05T19:49:39.862Z,17.87
2022-10-05T19:52:11.845Z,18.05
2022-10-05T19:54:38.491Z,17.74
2022-10-05T19:57:15.575Z,18.00
2022-10-05T19:59:45.898Z,18.38
2022-10-05T20:02:15.337Z,18.10
2022-10-05T20:04:43.619Z,18.33
2022-10-05T20:07:15.603Z,17.69
2022-10-05T20:09:51.110Z,18.32
2022-10-05T20:12:17.707Z,18.07
2022-10-05T20:14:44.294Z,18.47
2022-10-05T20:17:15.501Z,18.42
2022-10-05T20:19:41.945Z,17.83
2022-10-05T20:22:32.189Z,18.29
2022-10-05T20:25:00.239Z,18.49
2022-10-05T20:27:43.091Z,18.45
2022-10-05T20:30:11.790Z,18.86
2022-10-05T20:32:38.455Z,18.43
2022-10-05T20:35:05.796Z,18.50
2022-10-05T20:37:33.632Z,18.79
2022-10-05T20:40:00.107Z,19.01
2022-10-05T20:42:26.563Z,19.16
2022-10-05T20:44:56.710Z,18.86
2022-10-05T20:47:23.857Z,18.72
2022-10-05T20:49:50.353Z,18.76
2022-10-05T20:52:16.782Z,19.03
2022-10-05T20:57:15.888Z,18.71
2022-10-05T20:59:42.315Z,18.88
2022-10-05T21:02:08.873Z,18.67
2022-10-05T21:04:40.232Z,18.63
2022-10-05T21:07:07.768Z,18.16
2022-10-05T21:09:34.226Z,18.50
2022-10-05T21:12:01.963Z,18.77
2022-10-05T21:14:28.509Z,18.27
2022-10-05T21:16:54.972Z,18.50
2022-10-05T21:19:21.380Z,18.73
2022-10-05T21:21:47.767Z,18.94
2022-10-05T21:24:15.005Z,18.58
2022-10-05T21:26:42.381Z,18.78
2022-10-05T21:29:12.744Z,18.34
2022-10-05T21:31:40.014Z,18.40
2022-10-05T21:34:06.752Z,18.53
2022-10-05T21:36:33.242Z,18.35
2022-10-05T21:38:59.726Z,18.45
2022-10-05T21:41:26.474Z,18.10
2022-10-05T21:43:53.077Z,18.03
2022-10-05T21:46:23.031Z,18.25
2022-10-05T21:48:49.940Z,18.39
2022-10-05T21:51:18.396Z,18.29
2022-10-05T21:53:49.870Z,18.75
2022-10-05T21:56:19.194Z,18.94
2022-10-05T21:58:47.349Z,17.90
2022-10-05T22:01:15.942Z,18.34
2022-10-05T22:03:45.648Z,18.44
2022-10-05T22:06:12.155Z,18.40
2022-10-05T22:08:38.691Z,18.08
2022-10-05T22:11:14.205Z,18.53
2022-10-05T22:13:43.333Z,18.76
2022-10-05T22:16:10.383Z,18.79
2022-10-05T22:18:37.358Z,18.60
2022-10-05T22:21:06.326Z,18.69
2022-10-05T22:23:33.309Z,18.53
2022-10-05T22:26:00.084Z,18.58
2022-10-05T22:28:27.507Z,18.78
2022-10-05T22:30:54.256Z,18.69
2022-10-05T22:33:20.657Z,18.64
2022-10-05T22:35:47.169Z,18.53
2022-10-05T22:38:14.987Z,18.65
2022-10-05T22:40:41.390Z,18.11
2022-10-05T22:43:08.010Z,18.56
2022-10-05T22:45:34.577Z,18.58
2022-10-05T22:48:01.045Z,18.80
2022-10-05T22:50:27.591Z,18.68
2022-10-05T22:52:54.028Z,18.66
2022-10-05T22:55:21.855Z,18.74
2022-10-05T22:57:48.259Z,19.02
2022-10-05T23:00:15.301Z,18.89
2022-10-05T23:02:43.404Z,18.68
2022-10-05T23:05:10.958Z,18.65
2022-10-05T23:07:38.240Z,18.52
2022-10-05T23:10:06.235Z,18.74
2022-10-05T23:12:34.084Z,18.33
2022-10-05T23:15:00.636Z,18.09
2022-10-05T23:17:27.142Z,18.62
2022-10-05T23:19:54.405Z,18.48
2022-10-05T23:22:21.056Z,18.40
2022-10-05T23:24:47.483Z,18.87
2022-10-05T23:27:13.934Z,19.00
2022-10-05T23:29:41.749Z,18.68
2022-10-05T23:32:08.175Z,18.31
2022-10-05T23:34:34.651Z,18.60
2022-10-05T23:37:01.115Z,18.56
2022-10-05T23:39:27.633Z,18.65
2022-10-05T23:41:54.070Z,18.84
2022-10-05T23:44:20.495Z,18.72
2022-10-05T23:46:48.943Z,18.80
2022-10-05T23:49:15.414Z,18.97
2022-10-05T23:51:41.815Z,18.77
2022-10-05T23:54:08.241Z,18.89
2022-10-05T23:56:34.691Z,18.68
2022-10-05T23:59:01.088Z,19.14
